Time,TemperatureF,DewpointF,PressureIn,WindDirection,WindDirectionDegrees,WindSpeedMPH,WindSpeedGustMPH,Humidity,HourlyPrecipIn,Conditions,Clouds,dailyrainin,SoftwareType,DateUTC
2013-09-24 00:00:00,56.5,49.4,29.93,NNW,335,5.0,15.0,77,0.00,,---,0.00,VWS V14.01,2013-09-24 07:00:00,
2013-09-24 00:01:00,56.5,49.7,29.93,NW,310,7.0,11.0,78,0.00,,---,0.00,VWS V14.01,2013-09-24 07:01:00,
2013-09-24 00:06:00,56.6,49.8,29.93,NNW,346,0.0,11.0,78,0.00,,---,0.00,VWS V14.01,2013-09-24 07:06:00,
2013-09-24 00:11:00,56.8,50.0,29.93,WSW,252,0.0,11.0,78,0.00,,---,0.00,VWS V14.01,2013-09-24 07:11:00,
2013-09-24 00:16:00,56.9,50.5,29.93,SSW,200,0.0,11.0,79,0.00,,---,0.00,VWS V14.01,2013-09-24 07:16:00,
2013-09-24 00:21:00,56.9,50.8,29.93,SSW,201,0.0,11.0,80,0.00,,---,0.00,VWS V14.01,2013-09-24 07:21:00,
2013-09-24 00:26:00,56.8,51.0,29.93,WNW,285,4.0,11.0,81,0.00,,---,0.00,VWS V14.01,2013-09-24 07:26:00,
2013-09-24 00:30:00,56.7,50.9,29.93,NW,321,3.0,11.0,81,0.00,,---,0.00,VWS V14.01,2013-09-24 07:30:00,
2013-09-24 00:31:00,56.6,50.8,29.93,NW,305,6.0,10.0,81,0.00,,---,0.00,VWS V14.01,2013-09-24 07:31:00,
2013-09-24 00:36:00,56.6,50.8,29.93,NW,318,0.0,10.0,81,0.00,,---,0.00,VWS V14.01,2013-09-24 07:36:00,
2013-09-24 00:41:00,56.5,51.1,29.93,North,360,7.0,10.0,82,0.00,,---,0.00,VWS V14.01,2013-09-24 07:41:00,
2013-09-24 00:46:00,56.5,51.1,29.93,NW,313,9.0,13.0,82,0.00,,---,0.00,VWS V14.01,2013-09-24 07:46:00,
2013-09-24 00:51:00,56.4,51.0,29.93,West,270,3.0,14.0,82,0.00,,---,0.00,VWS V14.01,2013-09-24 07:51:00,
2013-09-24 00:56:00,56.4,51.0,29.93,North,360,6.0,14.0,82,0.00,,---,0.00,VWS V14.01,2013-09-24 07:56:00,
2013-09-24 01:00:00,56.4,51.3,29.93,WNW,285,5.0,14.0,83,0.00,,---,0.00,VWS V14.01,2013-09-24 08:00:00,
2013-09-24 01:01:00,56.4,51.3,29.93,NW,313,4.0,10.0,83,0.00,,---,0.00,VWS V14.01,2013-09-24 08:01:00,
2013-09-24 01:06:00,56.3,51.2,29.93,NW,309,2.0,10.0,83,0.00,,---,0.00,VWS V14.01,2013-09-24 08:06:00,
2013-09-24 01:11:00,56.3,51.2,29.93,NW,317,10.0,13.0,83,0.00,,---,0.00,VWS V14.01,2013-09-24 08:11:00,
2013-09-24 01:16:00,56.2,51.1,29.93,NW,318,6.0,13.0,83,0.00,,---,0.00,VWS V14.01,2013-09-24 08:16:00,
2013-09-24 01:21:00,56.2,51.1,29.93,NW,314,3.0,13.0,83,0.00,,---,0.00,VWS V14.01,2013-09-24 08:21:00,
2013-09-24 01:26:00,56.3,50.9,29.93,North,360,0.0,13.0,82,0.00,,---,0.00,VWS V14.01,2013-09-24 08:26:00,
2013-09-24 01:30:00,56.5,51.1,29.93,WNW,287,0.0,13.0,82,0.00,,---,0.00,VWS V14.01,2013-09-24 08:30:00,
2013-09-24 01:31:00,56.6,51.5,29.93,North,360,3.0,6.0,83,0.00,,---,0.00,VWS V14.01,2013-09-24 08:31:00,
2013-09-24 01:36:00,56.6,51.8,29.93,NW,304,5.0,10.0,84,0.00,,---,0.00,VWS V14.01,2013-09-24 08:36:00,
2013-09-24 01:41:00,56.5,51.7,29.93,North,360,4.0,10.0,84,0.00,,---,0.00,VWS V14.01,2013-09-24 08:41:00,
2013-09-24 01:46:00,56.4,51.6,29.92,NW,319,10.0,13.0,84,0.00,,---,0.00,VWS V14.01,2013-09-24 08:46:00,
2013-09-24 01:51:00,56.4,51.3,29.92,North,360,6.0,13.0,83,0.00,,---,0.00,VWS V14.01,2013-09-24 08:51:00,
2013-09-24 01:56:00,56.7,51.9,29.93,NW,312,11.0,13.0,84,0.00,,---,0.00,VWS V14.01,2013-09-24 08:56:00,
2013-09-24 02:00:00,56.8,52.0,29.93,North,360,6.0,13.0,84,0.00,,---,0.00,VWS V14.01,2013-09-24 09:00:00,
2013-09-24 02:01:00,56.7,51.9,29.93,NW,306,6.0,12.0,84,0.00,,---,0.00,VWS V14.01,2013-09-24 09:01:00,
2013-09-24 02:06:00,56.6,51.8,29.93,NW,311,9.0,12.0,84,0.00,,---,0.00,VWS V14.01,2013-09-24 09:06:00,
2013-09-24 02:11:00,57.0,52.2,29.93,WNW,303,7.0,12.0,84,0.00,,---,0.00,VWS V14.01,2013-09-24 09:11:00,
2013-09-24 02:16:00,57.0,52.5,29.93,West,281,8.0,12.0,85,0.00,,---,0.00,VWS V14.01,2013-09-24 09:16:00,
2013-09-24 02:21:00,57.3,52.8,29.93,WNW,285,6.0,12.0,85,0.00,,---,0.00,VWS V14.01,2013-09-24 09:21:00,
2013-09-24 02:26:00,57.6,53.1,29.93,NW,314,7.0,12.0,85,0.00,,---,0.00,VWS V14.01,2013-09-24 09:26:00,
2013-09-24 02:30:00,57.5,53.0,29.93,NW,313,8.0,12.0,85,0.00,,---,0.00,VWS V14.01,2013-09-24 09:30:00,
2013-09-24 02:31:00,57.5,53.0,29.93,NW,304,9.0,12.0,85,0.00,,---,0.00,VWS V14.01,2013-09-24 09:31:00,
2013-09-24 02:36:00,57.5,53.0,29.92,NW,304,7.0,12.0,85,0.00,,---,0.00,VWS V14.01,2013-09-24 09:36:00,
2013-09-24 02:41:00,57.3,52.8,29.93,NW,308,6.0,12.0,85,0.00,,---,0.00,VWS V14.01,2013-09-24 09:41:00,
2013-09-24 02:46:00,57.1,52.6,29.92,NW,317,11.0,14.0,85,0.00,,---,0.00,VWS V14.01,2013-09-24 09:46:00,
2013-09-24 02:52:00,56.8,52.0,29.92,NW,325,11.0,14.0,84,0.00,,---,0.00,VWS V14.01,2013-09-24 09:52:00,
2013-09-24 02:57:00,56.5,51.4,29.92,WNW,286,9.0,14.0,83,0.00,,---,0.00,VWS V14.01,2013-09-24 09:57:00,
2013-09-24 03:00:00,56.4,51.3,29.92,NW,325,6.0,14.0,83,0.00,,---,0.00,VWS V14.01,2013-09-24 10:00:00,
2013-09-24 03:02:00,56.3,51.2,29.92,NW,321,10.0,13.0,83,0.00,,---,0.00,VWS V14.01,2013-09-24 10:02:00,
2013-09-24 03:07:00,56.0,50.9,29.92,NW,317,9.0,14.0,83,0.00,,---,0.00,VWS V14.01,2013-09-24 10:07:00,
2013-09-24 03:12:00,55.9,50.5,29.92,NNW,328,6.0,14.0,82,0.00,,---,0.00,VWS V14.01,2013-09-24 10:12:00,
2013-09-24 03:17:00,55.7,50.3,29.92,West,269,6.0,14.0,82,0.00,,---,0.00,VWS V14.01,2013-09-24 10:17:00,
2013-09-24 03:22:00,55.7,50.0,29.92,NW,313,9.0,14.0,81,0.00,,---,0.00,VWS V14.01,2013-09-24 10:22:00,
2013-09-24 03:27:00,55.6,49.9,29.92,NW,321,7.0,14.0,81,0.00,,---,0.00,VWS V14.01,2013-09-24 10:27:00,
2013-09-24 03:30:00,55.6,49.9,29.92,North,360,10.0,14.0,81,0.00,,---,0.00,VWS V14.01,2013-09-24 10:30:00,
2013-09-24 03:32:00,55.6,49.9,29.92,NW,313,6.0,12.0,81,0.00,,---,0.00,VWS V14.01,2013-09-24 10:32:00,
2013-09-24 03:37:00,55.5,49.8,29.92,North,360,9.0,13.0,81,0.00,,---,0.00,VWS V14.01,2013-09-24 10:37:00,
2013-09-24 03:42:00,55.4,49.7,29.92,NW,323,13.0,14.0,81,0.00,,---,0.00,VWS V14.01,2013-09-24 10:42:00,
2013-09-24 03:47:00,55.3,49.6,29.92,NW,321,7.0,14.0,81,0.00,,---,0.00,VWS V14.01,2013-09-24 10:47:00,
2013-09-24 03:52:00,55.2,49.5,29.92,NW,319,5.0,14.0,81,0.00,,---,0.00,VWS V14.01,2013-09-24 10:52:00,
2013-09-24 03:57:00,55.3,49.9,29.93,NW,304,14.0,14.0,82,0.00,,---,0.00,VWS V14.01,2013-09-24 10:57:00,
2013-09-24 04:00:00,55.4,50.0,29.92,NW,320,9.0,14.0,82,0.00,,---,0.00,VWS V14.01,2013-09-24 11:00:00,
2013-09-24 04:02:00,55.5,50.1,29.92,NW,320,11.0,14.0,82,0.00,,---,0.00,VWS V14.01,2013-09-24 11:02:00,
2013-09-24 04:07:00,55.6,50.5,29.92,NW,317,11.0,14.0,83,0.00,,---,0.00,VWS V14.01,2013-09-24 11:07:00,
2013-09-24 04:12:00,55.9,51.1,29.92,NW,315,10.0,14.0,84,0.00,,---,0.00,VWS V14.01,2013-09-24 11:12:00,
2013-09-24 04:17:00,56.1,51.7,29.92,NW,314,9.0,14.0,85,0.00,,---,0.00,VWS V14.01,2013-09-24 11:17:00,
2013-09-24 04:22:00,56.6,52.2,29.92,North,360,6.0,14.0,85,0.00,,---,0.00,VWS V14.01,2013-09-24 11:22:00,
2013-09-24 04:27:00,57.0,52.5,29.92,NW,317,5.0,14.0,85,0.00,,---,0.00,VWS V14.01,2013-09-24 11:27:00,
2013-09-24 04:30:00,57.1,52.6,29.92,WNW,288,5.0,14.0,85,0.00,,---,0.00,VWS V14.01,2013-09-24 11:30:00,
2013-09-24 04:32:00,57.4,52.9,29.92,NW,306,3.0,10.0,85,0.00,,---,0.00,VWS V14.01,2013-09-24 11:32:00,
2013-09-24 04:37:00,57.9,53.4,29.93,WNW,283,5.0,12.0,85,0.00,,---,0.00,VWS V14.01,2013-09-24 11:37:00,
2013-09-24 04:42:00,58.0,53.5,29.93,NW,318,10.0,12.0,85,0.00,,---,0.00,VWS V14.01,2013-09-24 11:42:00,
2013-09-24 04:48:00,58.2,53.7,29.93,NW,319,10.0,12.0,85,0.00,,---,0.00,VWS V14.01,2013-09-24 11:48:00,
2013-09-24 04:53:00,59.1,54.3,29.93,NW,314,0.0,16.0,84,0.00,,---,0.00,VWS V14.01,2013-09-24 11:53:00,
2013-09-24 04:58:00,59.5,54.3,29.93,NW,313,4.0,6.0,83,0.00,,---,0.00,VWS V14.01,2013-09-24 11:58:00,
2013-09-24 05:00:00,59.5,54.3,29.93,North,360,5.0,16.0,83,0.00,,---,0.00,VWS V14.01,2013-09-24 12:00:00,
2013-09-24 05:03:00,59.5,54.0,29.93,NW,317,4.0,10.0,82,0.00,,---,0.00,VWS V14.01,2013-09-24 12:03:00,
2013-09-24 05:09:00,59.0,53.5,29.93,NW,307,4.0,10.0,82,0.00,,---,0.00,VWS V14.01,2013-09-24 12:09:00,
2013-09-24 05:14:00,58.6,53.5,29.93,WNW,284,11.0,11.0,83,0.00,,---,0.00,VWS V14.01,2013-09-24 12:14:00,
2013-09-24 05:19:00,58.5,53.7,29.93,WNW,303,6.0,11.0,84,0.00,,---,0.00,VWS V14.01,2013-09-24 12:19:00,
2013-09-24 05:24:00,58.6,53.8,29.93,North,360,3.0,11.0,84,0.00,,---,0.00,VWS V14.01,2013-09-24 12:24:00,
2013-09-24 05:29:00,58.6,53.8,29.93,North,360,3.0,7.0,84,0.00,,---,0.00,VWS V14.01,2013-09-24 12:29:00,
2013-09-24 05:30:00,58.6,53.8,29.93,NW,309,4.0,11.0,84,0.00,,---,0.00,VWS V14.01,2013-09-24 12:30:00,
2013-09-24 05:34:00,58.4,53.6,29.93,North,360,4.0,10.0,84,0.00,,---,0.00,VWS V14.01,2013-09-24 12:34:00,
2013-09-24 05:39:00,57.9,53.4,29.93,NW,304,2.0,10.0,85,0.00,,---,0.00,VWS V14.01,2013-09-24 12:39:00,
2013-09-24 05:44:00,57.6,53.1,29.93,North,360,7.0,10.0,85,0.00,,---,0.00,VWS V14.01,2013-09-24 12:44:00,
2013-09-24 05:49:00,57.2,52.7,29.94,WNW,283,3.0,10.0,85,0.00,,---,0.00,VWS V14.01,2013-09-24 12:49:00,
2013-09-24 05:54:00,57.2,52.7,29.94,North,360,3.0,10.0,85,0.00,,---,0.00,VWS V14.01,2013-09-24 12:54:00,
2013-09-24 05:59:00,57.6,53.1,29.94,West,281,4.0,9.0,85,0.00,,---,0.00,VWS V14.01,2013-09-24 12:59:00,
2013-09-24 06:00:00,57.5,53.0,29.94,NW,317,9.0,11.0,85,0.00,,---,0.00,VWS V14.01,2013-09-24 13:00:00,
2013-09-24 06:04:00,58.1,53.6,29.94,North,360,11.0,11.0,85,0.00,,---,0.00,VWS V14.01,2013-09-24 13:04:00,
2013-09-24 06:09:00,58.3,53.8,29.94,WNW,283,7.0,11.0,85,0.00,,---,0.00,VWS V14.01,2013-09-24 13:09:00,
2013-09-24 06:14:00,58.6,54.1,29.94,WNW,283,3.0,11.0,85,0.00,,---,0.00,VWS V14.01,2013-09-24 13:14:00,
2013-09-24 06:19:00,58.2,53.7,29.94,West,279,5.0,11.0,85,0.00,,---,0.00,VWS V14.01,2013-09-24 13:19:00,
2013-09-24 06:24:00,57.5,53.0,29.94,NW,307,7.0,13.0,85,0.00,,---,0.00,VWS V14.01,2013-09-24 13:24:00,
2013-09-24 06:29:00,56.9,52.4,29.94,NW,317,12.0,12.0,85,0.00,,---,0.00,VWS V14.01,2013-09-24 13:29:00,
2013-09-24 06:30:00,57.0,52.5,29.94,WNW,286,8.0,13.0,85,0.00,,---,0.00,VWS V14.01,2013-09-24 13:30:00,
2013-09-24 06:34:00,56.5,52.0,29.94,NNW,339,5.0,13.0,85,0.00,,---,0.00,VWS V14.01,2013-09-24 13:34:00,
2013-09-24 06:39:00,56.2,51.8,29.94,North,360,7.0,14.0,85,0.00,,---,0.00,VWS V14.01,2013-09-24 13:39:00,
2013-09-24 06:44:00,56.2,51.8,29.94,NW,317,6.0,16.0,85,0.00,,---,0.00,VWS V14.01,2013-09-24 13:44:00,
2013-09-24 06:49:00,56.0,51.6,29.94,NW,313,8.0,16.0,85,0.00,,---,0.00,VWS V14.01,2013-09-24 13:49:00,
2013-09-24 06:54:00,55.9,51.5,29.94,NW,304,6.0,16.0,85,0.00,,---,0.00,VWS V14.01,2013-09-24 13:54:00,
2013-09-24 07:00:00,55.7,51.3,29.94,NW,308,7.0,11.0,85,0.00,,---,0.00,VWS V14.01,2013-09-24 14:00:00,
2013-09-24 07:05:00,55.7,51.0,29.95,NW,318,6.0,13.0,84,0.00,,---,0.00,VWS V14.01,2013-09-24 14:05:00,
2013-09-24 07:10:00,55.7,51.0,29.95,NW,315,4.0,13.0,84,0.00,,---,0.00,VWS V14.01,2013-09-24 14:10:00,
2013-09-24 07:15:00,56.0,51.2,29.95,North,360,5.0,13.0,84,0.00,,---,0.00,VWS V14.01,2013-09-24 14:15:00,
2013-09-24 07:20:00,56.2,51.8,29.95,NW,307,6.0,13.0,85,0.00,,---,0.00,VWS V14.01,2013-09-24 14:20:00,
2013-09-24 07:25:00,56.6,52.2,29.95,NW,307,6.0,13.0,85,0.00,,---,0.00,VWS V14.01,2013-09-24 14:25:00,
2013-09-24 07:30:00,56.8,52.3,29.95,North,360,7.0,11.0,85,0.00,,---,0.00,VWS V14.01,2013-09-24 14:30:00,
2013-09-24 07:35:00,56.9,52.4,29.95,West,267,3.0,11.0,85,0.00,,---,0.00,VWS V14.01,2013-09-24 14:35:00,
2013-09-24 07:40:00,57.3,52.8,29.95,North,360,0.0,12.0,85,0.00,,---,0.00,VWS V14.01,2013-09-24 14:40:00,
2013-09-24 07:45:00,57.8,53.3,29.95,West,279,7.0,12.0,85,0.00,,---,0.00,VWS V14.01,2013-09-24 14:45:00,
2013-09-24 07:50:00,58.6,54.1,29.95,North,360,0.0,12.0,85,0.00,,---,0.00,VWS V14.01,2013-09-24 14:50:00,
2013-09-24 07:55:00,59.0,54.5,29.95,North,360,1.0,12.0,85,0.00,,---,0.00,VWS V14.01,2013-09-24 14:55:00,
2013-09-24 08:00:00,59.0,54.5,29.95,NW,313,8.0,10.0,85,0.00,,---,0.00,VWS V14.01,2013-09-24 15:00:00,
2013-09-24 08:05:00,58.7,54.2,29.95,NW,305,6.0,13.0,85,0.00,,---,0.00,VWS V14.01,2013-09-24 15:05:00,
2013-09-24 08:10:00,58.3,53.5,29.95,WNW,284,6.0,13.0,84,0.00,,---,0.00,VWS V14.01,2013-09-24 15:10:00,
2013-09-24 08:15:00,58.1,53.3,29.95,WNW,301,9.0,15.0,84,0.00,,---,0.00,VWS V14.01,2013-09-24 15:15:00,
2013-09-24 08:20:00,57.9,52.8,29.96,NW,322,7.0,15.0,83,0.00,,---,0.00,VWS V14.01,2013-09-24 15:20:00,
2013-09-24 08:25:00,57.7,52.2,29.95,North,360,12.0,15.0,82,0.00,,---,0.00,VWS V14.01,2013-09-24 15:25:00,
2013-09-24 08:30:00,57.8,52.0,29.95,NW,306,12.0,12.0,81,0.00,,---,0.00,VWS V14.01,2013-09-24 15:30:00,
2013-09-24 08:35:00,57.8,52.0,29.96,North,360,7.0,15.0,81,0.00,,---,0.00,VWS V14.01,2013-09-24 15:35:00,
2013-09-24 08:40:00,57.9,52.1,29.96,NW,314,9.0,15.0,81,0.00,,---,0.00,VWS V14.01,2013-09-24 15:40:00,
2013-09-24 08:45:00,57.9,51.8,29.96,North,360,7.0,15.0,80,0.00,,---,0.00,VWS V14.01,2013-09-24 15:45:00,
2013-09-24 08:51:00,57.8,52.0,29.96,NW,306,9.0,15.0,81,0.00,,---,0.00,VWS V14.01,2013-09-24 15:51:00,
2013-09-24 08:56:00,57.7,51.9,29.96,WNW,303,6.0,15.0,81,0.00,,---,0.00,VWS V14.01,2013-09-24 15:56:00,
2013-09-24 09:00:00,57.7,51.6,29.96,NW,311,7.0,15.0,80,0.00,,---,0.00,VWS V14.01,2013-09-24 16:00:00,
2013-09-24 09:01:00,57.4,51.6,29.96,NW,316,8.0,14.0,81,0.00,,---,0.00,VWS V14.01,2013-09-24 16:01:00,
2013-09-24 09:06:00,57.1,50.7,29.97,WNW,283,5.0,15.0,79,0.00,,---,0.00,VWS V14.01,2013-09-24 16:06:00,
2013-09-24 09:11:00,57.0,50.2,29.97,NW,315,10.0,15.0,78,0.00,,---,0.00,VWS V14.01,2013-09-24 16:11:00,
2013-09-24 09:16:00,57.0,49.9,29.97,NW,313,9.0,15.0,77,0.00,,---,0.00,VWS V14.01,2013-09-24 16:16:00,
2013-09-24 09:21:00,57.3,50.5,29.97,NW,314,5.0,15.0,78,0.00,,---,0.00,VWS V14.01,2013-09-24 16:21:00,
2013-09-24 09:26:00,57.7,50.9,29.97,West,272,4.0,15.0,78,0.00,,---,0.00,VWS V14.01,2013-09-24 16:26:00,
2013-09-24 09:30:00,57.9,51.4,29.98,NW,306,5.0,15.0,79,0.00,,---,0.00,VWS V14.01,2013-09-24 16:30:00,
2013-09-24 09:31:00,58.0,51.9,29.98,NW,315,0.0,10.0,80,0.00,,---,0.00,VWS V14.01,2013-09-24 16:31:00,
2013-09-24 09:36:00,58.4,52.3,29.98,West,281,0.0,10.0,80,0.00,,---,0.00,VWS V14.01,2013-09-24 16:36:00,
2013-09-24 09:41:00,58.8,53.7,29.98,NW,322,2.0,14.0,83,0.00,,---,0.00,VWS V14.01,2013-09-24 16:41:00,
2013-09-24 09:46:00,59.0,53.8,29.98,North,360,0.0,14.0,83,0.00,,---,0.00,VWS V14.01,2013-09-24 16:46:00,
2013-09-24 09:51:00,59.0,54.2,29.98,SW,230,4.0,14.0,84,0.00,,---,0.00,VWS V14.01,2013-09-24 16:51:00,
2013-09-24 09:56:00,59.1,54.3,29.98,NW,325,6.0,14.0,84,0.00,,---,0.00,VWS V14.01,2013-09-24 16:56:00,
2013-09-24 10:00:00,59.0,54.2,29.98,West,273,0.0,14.0,84,0.00,,---,0.00,VWS V14.01,2013-09-24 17:00:00,
2013-09-24 10:01:00,59.2,54.4,29.98,NW,318,0.0,8.0,84,0.00,,---,0.00,VWS V14.01,2013-09-24 17:01:00,
2013-09-24 10:07:00,59.9,55.4,29.98,West,276,0.0,10.0,85,0.00,,---,0.00,VWS V14.01,2013-09-24 17:07:00,
2013-09-24 10:12:00,60.4,55.5,29.98,NW,323,3.0,12.0,84,0.00,,---,0.00,VWS V14.01,2013-09-24 17:12:00,
2013-09-24 10:17:00,60.6,55.8,29.99,North,360,12.0,17.0,84,0.00,,---,0.00,VWS V14.01,2013-09-24 17:17:00,
2013-09-24 10:22:00,60.4,55.5,29.99,WNW,299,11.0,17.0,84,0.00,,---,0.00,VWS V14.01,2013-09-24 17:22:00,
2013-09-24 10:27:00,59.9,55.4,29.99,NW,318,5.0,17.0,85,0.00,,---,0.00,VWS V14.01,2013-09-24 17:27:00,
2013-09-24 10:30:00,59.9,55.4,29.99,WNW,285,6.0,17.0,85,0.00,,---,0.00,VWS V14.01,2013-09-24 17:30:00,
2013-09-24 10:32:00,59.9,55.4,29.99,NW,320,12.0,14.0,85,0.00,,---,0.00,VWS V14.01,2013-09-24 17:32:00,
2013-09-24 10:37:00,60.1,55.6,29.99,NW,317,6.0,14.0,85,0.00,,---,0.00,VWS V14.01,2013-09-24 17:37:00,
2013-09-24 10:42:00,60.1,55.6,29.99,NW,313,10.0,15.0,85,0.00,,---,0.00,VWS V14.01,2013-09-24 17:42:00,
2013-09-24 10:47:00,60.1,55.6,29.99,WNW,302,8.0,15.0,85,0.00,,---,0.00,VWS V14.01,2013-09-24 17:47:00,
2013-09-24 10:52:00,60.2,55.3,29.99,West,269,6.0,15.0,84,0.00,,---,0.00,VWS V14.01,2013-09-24 17:52:00,
2013-09-24 10:57:00,60.5,55.3,29.99,NW,323,6.0,15.0,83,0.00,,---,0.00,VWS V14.01,2013-09-24 17:57:00,
2013-09-24 11:00:00,60.6,55.4,29.99,North,360,10.0,15.0,83,0.00,,---,0.00,VWS V14.01,2013-09-24 18:00:00,
2013-09-24 11:02:00,61.1,55.6,29.99,NW,319,0.0,11.0,82,0.00,,---,0.00,VWS V14.01,2013-09-24 18:02:00,
2013-09-24 11:07:00,61.6,55.7,29.99,NW,304,7.0,13.0,81,0.00,,---,0.00,VWS V14.01,2013-09-24 18:07:00,
2013-09-24 11:12:00,62.1,55.9,29.99,North,360,10.0,13.0,80,0.00,,---,0.00,VWS V14.01,2013-09-24 18:12:00,
2013-09-24 11:17:00,62.0,56.1,29.99,WNW,284,4.0,14.0,81,0.00,,---,0.00,VWS V14.01,2013-09-24 18:17:00,
2013-09-24 11:22:00,62.3,56.4,29.99,WNW,286,1.0,14.0,81,0.00,,---,0.00,VWS V14.01,2013-09-24 18:22:00,
2013-09-24 11:27:00,62.6,56.7,29.99,NW,317,5.0,14.0,81,0.00,,---,0.00,VWS V14.01,2013-09-24 18:27:00,
2013-09-24 11:30:00,62.7,56.8,29.98,NW,321,7.0,14.0,81,0.00,,---,0.00,VWS V14.01,2013-09-24 18:30:00,
2013-09-24 11:32:00,63.0,57.1,29.99,North,360,6.0,11.0,81,0.00,,---,0.00,VWS V14.01,2013-09-24 18:32:00,
2013-09-24 11:37:00,63.0,57.1,29.99,WNW,301,2.0,13.0,81,0.00,,---,0.00,VWS V14.01,2013-09-24 18:37:00,
2013-09-24 11:42:00,63.0,57.1,29.98,NW,314,7.0,13.0,81,0.00,,---,0.00,VWS V14.01,2013-09-24 18:42:00,
2013-09-24 11:47:00,62.7,57.1,29.98,West,281,5.0,14.0,82,0.00,,---,0.00,VWS V14.01,2013-09-24 18:47:00,
2013-09-24 11:52:00,62.7,57.1,29.98,NW,313,5.0,14.0,82,0.00,,---,0.00,VWS V14.01,2013-09-24 18:52:00,
2013-09-24 11:57:00,62.5,56.9,29.98,NW,318,9.0,16.0,82,0.00,,---,0.00,VWS V14.01,2013-09-24 18:57:00,
2013-09-24 12:00:00,62.4,56.8,29.98,NW,306,13.0,16.0,82,0.00,,---,0.00,VWS V14.01,2013-09-24 19:00:00,
2013-09-24 12:02:00,62.3,57.1,29.98,West,266,0.0,14.0,83,0.00,,---,0.00,VWS V14.01,2013-09-24 19:02:00,
2013-09-24 12:07:00,62.6,57.0,29.98,South,183,3.0,15.0,82,0.00,,---,0.00,VWS V14.01,2013-09-24 19:07:00,
2013-09-24 12:12:00,62.7,57.1,29.98,NNW,330,9.0,16.0,82,0.00,,---,0.00,VWS V14.01,2013-09-24 19:12:00,
2013-09-24 12:17:00,62.7,57.1,29.98,NNW,327,13.0,19.0,82,0.00,,---,0.00,VWS V14.01,2013-09-24 19:17:00,
2013-09-24 12:22:00,62.6,57.0,29.97,WNW,284,10.0,19.0,82,0.00,,---,0.00,VWS V14.01,2013-09-24 19:22:00,
2013-09-24 12:28:00,62.4,56.8,29.97,NW,306,7.0,23.0,82,0.00,,---,0.00,VWS V14.01,2013-09-24 19:28:00,
2013-09-24 12:30:00,62.4,56.8,29.97,NW,316,11.0,23.0,82,0.00,,---,0.00,VWS V14.01,2013-09-24 19:30:00,
2013-09-24 12:33:00,62.8,57.2,29.97,NNE,17,7.0,19.0,82,0.00,,---,0.00,VWS V14.01,2013-09-24 19:33:00,
2013-09-24 12:38:00,63.0,57.1,29.97,NW,319,6.0,19.0,81,0.00,,---,0.00,VWS V14.01,2013-09-24 19:38:00,
2013-09-24 12:43:00,63.4,57.5,29.97,NW,313,3.0,19.0,81,0.00,,---,0.00,VWS V14.01,2013-09-24 19:43:00,
2013-09-24 12:48:00,63.3,57.0,29.97,West,276,15.0,22.0,80,0.00,,---,0.00,VWS V14.01,2013-09-24 19:48:00,
2013-09-24 12:53:00,63.2,56.9,29.97,WNW,294,19.0,23.0,80,0.00,,---,0.00,VWS V14.01,2013-09-24 19:53:00,
2013-09-24 12:58:00,63.1,57.2,29.97,NW,314,5.0,23.0,81,0.00,,---,0.00,VWS V14.01,2013-09-24 19:58:00,
2013-09-24 13:00:00,63.2,57.3,29.97,NW,319,5.0,23.0,81,0.00,,---,0.00,VWS V14.01,2013-09-24 20:00:00,
2013-09-24 13:03:00,63.4,57.1,29.97,WNW,286,18.0,20.0,80,0.00,,---,0.00,VWS V14.01,2013-09-24 20:03:00,
2013-09-24 13:08:00,63.2,56.9,29.96,NW,313,7.0,20.0,80,0.00,,---,0.00,VWS V14.01,2013-09-24 20:08:00,
2013-09-24 13:13:00,63.1,56.8,29.96,North,360,4.0,23.0,80,0.00,,---,0.00,VWS V14.01,2013-09-24 20:13:00,
2013-09-24 13:18:00,63.4,57.1,29.96,WNW,284,7.0,23.0,80,0.00,,---,0.00,VWS V14.01,2013-09-24 20:18:00,
2013-09-24 13:23:00,63.5,57.2,29.96,NW,315,10.0,23.0,80,0.00,,---,0.00,VWS V14.01,2013-09-24 20:23:00,
2013-09-24 13:28:00,63.5,57.2,29.95,WNW,302,2.0,23.0,80,0.00,,---,0.00,VWS V14.01,2013-09-24 20:28:00,
2013-09-24 13:30:00,63.5,57.2,29.95,WNW,284,8.0,23.0,80,0.00,,---,0.00,VWS V14.01,2013-09-24 20:30:00,
2013-09-24 13:33:00,63.6,57.0,29.95,North,360,10.0,17.0,79,0.00,,---,0.00,VWS V14.01,2013-09-24 20:33:00,
2013-09-24 13:38:00,63.7,57.1,29.95,NW,314,3.0,17.0,79,0.00,,---,0.00,VWS V14.01,2013-09-24 20:38:00,
2013-09-24 13:43:00,64.0,57.0,29.95,NW,306,4.0,17.0,78,0.00,,---,0.00,VWS V14.01,2013-09-24 20:43:00,
2013-09-24 13:48:00,64.2,56.8,29.94,NW,304,3.0,17.0,77,0.00,,---,0.00,VWS V14.01,2013-09-24 20:48:00,
2013-09-24 13:53:00,64.3,57.3,29.95,NW,317,5.0,17.0,78,0.00,,---,0.00,VWS V14.01,2013-09-24 20:53:00,
2013-09-24 13:58:00,64.3,57.3,29.94,NW,313,1.0,3.0,78,0.00,,---,0.00,VWS V14.01,2013-09-24 20:58:00,
2013-09-24 14:00:00,64.3,57.3,29.94,NW,313,3.0,17.0,78,0.00,,---,0.00,VWS V14.01,2013-09-24 21:00:00,
2013-09-24 14:03:00,64.7,58.0,29.94,WNW,284,5.0,10.0,79,0.00,,---,0.00,VWS V14.01,2013-09-24 21:03:00,
2013-09-24 14:08:00,64.5,57.5,29.94,North,360,5.0,14.0,78,0.00,,---,0.00,VWS V14.01,2013-09-24 21:08:00,
2013-09-24 14:13:00,63.8,57.2,29.94,NW,323,12.0,17.0,79,0.00,,---,0.00,VWS V14.01,2013-09-24 21:13:00,
2013-09-24 14:18:00,63.3,57.4,29.94,West,281,6.0,20.0,81,0.00,,---,0.00,VWS V14.01,2013-09-24 21:18:00,
2013-09-24 14:23:00,63.2,57.3,29.94,WNW,284,4.0,20.0,81,0.00,,---,0.00,VWS V14.01,2013-09-24 21:23:00,
2013-09-24 14:28:00,63.1,57.2,29.94,North,5,9.0,9.0,81,0.00,,---,0.00,VWS V14.01,2013-09-24 21:28:00,
2013-09-24 14:30:00,63.1,57.2,29.93,WNW,284,6.0,21.0,81,0.00,,---,0.00,VWS V14.01,2013-09-24 21:30:00,
2013-09-24 14:33:00,63.0,57.4,29.93,WNW,284,13.0,20.0,82,0.00,,---,0.00,VWS V14.01,2013-09-24 21:33:00,
2013-09-24 14:38:00,63.2,57.6,29.93,WNW,283,6.0,20.0,82,0.00,,---,0.00,VWS V14.01,2013-09-24 21:38:00,
2013-09-24 14:44:00,63.3,57.7,29.94,NNW,341,17.0,20.0,82,0.00,,---,0.00,VWS V14.01,2013-09-24 21:44:00,
2013-09-24 14:49:00,62.8,57.6,29.94,NW,325,12.0,21.0,83,0.00,,---,0.00,VWS V14.01,2013-09-24 21:49:00,
2013-09-24 14:54:00,62.7,57.5,29.93,West,279,9.0,24.0,83,0.00,,---,0.00,VWS V14.01,2013-09-24 21:54:00,
2013-09-24 14:59:00,62.2,57.0,29.93,NNW,327,16.0,20.0,83,0.00,,---,0.00,VWS V14.01,2013-09-24 21:59:00,
2013-09-24 15:00:00,62.2,57.3,29.93,NW,306,20.0,24.0,84,0.00,,---,0.00,VWS V14.01,2013-09-24 22:00:00,
2013-09-24 15:04:00,61.8,56.9,29.93,NW,309,6.0,21.0,84,0.00,,---,0.00,VWS V14.01,2013-09-24 22:04:00,
2013-09-24 15:09:00,61.9,57.0,29.93,WNW,286,15.0,21.0,84,0.00,,---,0.00,VWS V14.01,2013-09-24 22:09:00,
2013-09-24 15:14:00,61.8,56.9,29.93,WNW,282,18.0,21.0,84,0.00,,---,0.00,VWS V14.01,2013-09-24 22:14:00,
2013-09-24 15:19:00,61.6,56.7,29.93,NW,318,13.0,21.0,84,0.00,,---,0.00,VWS V14.01,2013-09-24 22:19:00,
2013-09-24 15:24:00,61.6,56.7,29.94,NW,307,12.0,21.0,84,0.00,,---,0.00,VWS V14.01,2013-09-24 22:24:00,
2013-09-24 15:29:00,61.2,56.3,29.94,NW,322,9.0,15.0,84,0.00,,---,0.00,VWS V14.01,2013-09-24 22:29:00,
2013-09-24 15:30:00,61.3,56.4,29.94,NW,315,11.0,21.0,84,0.00,,---,0.00,VWS V14.01,2013-09-24 22:30:00,
2013-09-24 15:34:00,61.3,56.4,29.94,NW,315,14.0,22.0,84,0.00,,---,0.00,VWS V14.01,2013-09-24 22:34:00,
2013-09-24 15:39:00,61.2,56.3,29.93,NW,313,7.0,22.0,84,0.00,,---,0.00,VWS V14.01,2013-09-24 22:39:00,
2013-09-24 15:44:00,61.3,56.8,29.94,NW,313,9.0,22.0,85,0.00,,---,0.00,VWS V14.01,2013-09-24 22:44:00,
2013-09-24 15:49:00,61.3,56.4,29.93,NW,317,12.0,22.0,84,0.00,,---,0.00,VWS V14.01,2013-09-24 22:49:00,
2013-09-24 15:54:00,61.3,56.4,29.93,NW,315,10.0,22.0,84,0.00,,---,0.00,VWS V14.01,2013-09-24 22:54:00,
2013-09-24 15:59:00,61.3,56.4,29.93,NNW,330,4.0,15.0,84,0.00,,---,0.00,VWS V14.01,2013-09-24 22:59:00,
2013-09-24 16:00:00,61.3,56.4,29.93,WNW,283,13.0,22.0,84,0.00,,---,0.00,VWS V14.01,2013-09-24 23:00:00,
2013-09-24 16:04:00,61.2,56.3,29.94,North,360,3.0,16.0,84,0.00,,---,0.00,VWS V14.01,2013-09-24 23:04:00,
2013-09-24 16:09:00,61.1,56.6,29.94,West,273,6.0,18.0,85,0.00,,---,0.00,VWS V14.01,2013-09-24 23:09:00,
2013-09-24 16:14:00,60.9,56.4,29.93,NNW,333,4.0,18.0,85,0.00,,---,0.00,VWS V14.01,2013-09-24 23:14:00,
2013-09-24 16:19:00,60.9,56.0,29.93,NW,323,7.0,20.0,84,0.00,,---,0.00,VWS V14.01,2013-09-24 23:19:00,
2013-09-24 16:24:00,60.7,55.8,29.92,NW,318,9.0,20.0,84,0.00,,---,0.00,VWS V14.01,2013-09-24 23:24:00,
2013-09-24 16:29:00,60.7,56.2,29.93,West,273,6.0,13.0,85,0.00,,---,0.00,VWS V14.01,2013-09-24 23:29:00,
2013-09-24 16:30:00,60.7,56.2,29.92,WSW,254,9.0,20.0,85,0.00,,---,0.00,VWS V14.01,2013-09-24 23:30:00,
2013-09-24 16:35:00,60.7,56.2,29.92,NW,305,5.0,18.0,85,0.00,,---,0.00,VWS V14.01,2013-09-24 23:35:00,
2013-09-24 16:40:00,60.7,56.2,29.92,West,278,10.0,18.0,85,0.00,,---,0.00,VWS V14.01,2013-09-24 23:40:00,
2013-09-24 16:45:00,60.6,55.8,29.93,West,265,4.0,19.0,84,0.00,,---,0.00,VWS V14.01,2013-09-24 23:45:00,
2013-09-24 16:50:00,60.6,55.8,29.92,NW,319,14.0,19.0,84,0.00,,---,0.00,VWS V14.01,2013-09-24 23:50:00,
2013-09-24 16:55:00,60.4,55.5,29.92,North,360,5.0,19.0,84,0.00,,---,0.00,VWS V14.01,2013-09-24 23:55:00,
2013-09-24 17:00:00,60.0,55.5,29.93,NW,317,13.0,22.0,85,0.00,,---,0.00,VWS V14.01,2013-09-25 00:00:00,
2013-09-24 17:05:00,60.0,55.5,29.93,North,360,5.0,22.0,85,0.00,,---,0.00,VWS V14.01,2013-09-25 00:05:00,
2013-09-24 17:10:00,59.9,55.4,29.92,NW,314,5.0,22.0,85,0.00,,---,0.00,VWS V14.01,2013-09-25 00:10:00,
2013-09-24 17:15:00,60.0,55.2,29.93,NNE,17,10.0,22.0,84,0.00,,---,0.00,VWS V14.01,2013-09-25 00:15:00,
2013-09-24 17:20:00,60.1,54.9,29.92,WNW,285,6.0,22.0,83,0.00,,---,0.00,VWS V14.01,2013-09-25 00:20:00,
2013-09-24 17:25:00,60.0,54.5,29.92,North,360,2.0,22.0,82,0.00,,---,0.00,VWS V14.01,2013-09-25 00:25:00,
2013-09-24 17:30:00,59.9,54.4,29.91,NW,313,11.0,18.0,82,0.00,,---,0.00,VWS V14.01,2013-09-25 00:30:00,
2013-09-24 17:35:00,60.0,54.8,29.92,NW,308,6.0,18.0,83,0.00,,---,0.00,VWS V14.01,2013-09-25 00:35:00,
2013-09-24 17:40:00,59.8,55.0,29.91,NW,315,19.0,23.0,84,0.00,,---,0.00,VWS V14.01,2013-09-25 00:40:00,
2013-09-24 17:45:00,59.5,54.7,29.91,WNW,284,6.0,23.0,84,0.00,,---,0.00,VWS V14.01,2013-09-25 00:45:00,
2013-09-24 17:50:00,59.1,54.6,29.91,NW,325,14.0,23.0,85,0.00,,---,0.00,VWS V14.01,2013-09-25 00:50:00,
2013-09-24 17:55:00,59.0,54.5,29.90,NW,320,12.0,23.0,85,0.00,,---,0.00,VWS V14.01,2013-09-25 00:55:00,
2013-09-24 18:00:00,59.0,54.5,29.91,WNW,302,11.0,20.0,85,0.00,,---,0.00,VWS V14.01,2013-09-25 01:00:00,
2013-09-24 18:05:00,59.0,54.5,29.91,North,360,6.0,22.0,85,0.00,,---,0.00,VWS V14.01,2013-09-25 01:05:00,
2013-09-24 18:10:00,58.8,54.3,29.90,NNW,331,6.0,22.0,85,0.00,,---,0.00,VWS V14.01,2013-09-25 01:10:00,
2013-09-24 18:16:00,58.6,54.1,29.90,NNW,333,8.0,22.0,85,0.00,,---,0.00,VWS V14.01,2013-09-25 01:16:00,
2013-09-24 18:21:00,58.4,53.9,29.90,NW,318,1.0,22.0,85,0.00,,---,0.00,VWS V14.01,2013-09-25 01:21:00,
2013-09-24 18:26:00,58.2,53.7,29.90,NW,309,11.0,22.0,85,0.00,,---,0.00,VWS V14.01,2013-09-25 01:26:00,
2013-09-24 18:30:00,58.1,53.3,29.90,WNW,284,4.0,22.0,84,0.00,,---,0.00,VWS V14.01,2013-09-25 01:30:00,
2013-09-24 18:31:00,58.0,53.2,29.90,North,360,4.0,15.0,84,0.00,,---,0.00,VWS V14.01,2013-09-25 01:31:00,
2013-09-24 18:36:00,58.0,53.2,29.90,NNW,334,6.0,18.0,84,0.00,,---,0.00,VWS V14.01,2013-09-25 01:36:00,
2013-09-24 18:41:00,57.9,53.1,29.90,WNW,283,10.0,18.0,84,0.00,,---,0.00,VWS V14.01,2013-09-25 01:41:00,
2013-09-24 18:46:00,57.7,53.2,29.90,NNW,330,4.0,23.0,85,0.00,,---,0.00,VWS V14.01,2013-09-25 01:46:00,
2013-09-24 18:51:00,57.7,53.2,29.90,NW,313,11.0,23.0,85,0.00,,---,0.00,VWS V14.01,2013-09-25 01:51:00,
2013-09-24 18:56:00,57.6,52.8,29.90,North,349,13.0,23.0,84,0.00,,---,0.00,VWS V14.01,2013-09-25 01:56:00,
2013-09-24 19:00:00,57.6,53.1,29.90,NW,308,16.0,23.0,85,0.00,,---,0.00,VWS V14.01,2013-09-25 02:00:00,
2013-09-24 19:01:00,57.7,53.2,29.90,NW,322,13.0,22.0,85,0.00,,---,0.00,VWS V14.01,2013-09-25 02:01:00,
2013-09-24 19:06:00,57.8,53.3,29.90,NW,315,9.0,22.0,85,0.00,,---,0.00,VWS V14.01,2013-09-25 02:06:00,
2013-09-24 19:11:00,57.8,53.3,29.90,NNW,329,15.0,24.0,85,0.00,,---,0.00,VWS V14.01,2013-09-25 02:11:00,
2013-09-24 19:16:00,57.8,53.3,29.89,North,360,12.0,24.0,85,0.00,,---,0.00,VWS V14.01,2013-09-25 02:16:00,
2013-09-24 19:21:00,57.8,53.3,29.90,WNW,303,9.0,24.0,85,0.00,,---,0.00,VWS V14.01,2013-09-25 02:21:00,
2013-09-24 19:26:00,57.8,53.3,29.89,NW,318,13.0,24.0,85,0.00,,---,0.00,VWS V14.01,2013-09-25 02:26:00,
2013-09-24 19:30:00,57.8,53.3,29.90,NNW,331,9.0,24.0,85,0.00,,---,0.00,VWS V14.01,2013-09-25 02:30:00,
2013-09-24 19:31:00,57.8,53.3,29.90,NW,315,14.0,14.0,85,0.00,,---,0.00,VWS V14.01,2013-09-25 02:31:00,
2013-09-24 19:37:00,57.7,53.2,29.90,NW,304,6.0,15.0,85,0.00,,---,0.00,VWS V14.01,2013-09-25 02:37:00,
2013-09-24 19:42:00,57.7,52.9,29.90,WNW,285,12.0,18.0,84,0.00,,---,0.00,VWS V14.01,2013-09-25 02:42:00,
2013-09-24 19:47:00,57.7,52.9,29.90,WNW,284,2.0,21.0,84,0.00,,---,0.00,VWS V14.01,2013-09-25 02:47:00,
2013-09-24 19:52:00,57.7,52.9,29.90,North,360,7.0,21.0,84,0.00,,---,0.00,VWS V14.01,2013-09-25 02:52:00,
2013-09-24 19:57:00,57.7,52.9,29.90,West,281,8.0,21.0,84,0.00,,---,0.00,VWS V14.01,2013-09-25 02:57:00,
2013-09-24 20:00:00,57.7,52.9,29.90,WNW,282,6.0,21.0,84,0.00,,---,0.00,VWS V14.01,2013-09-25 03:00:00,
2013-09-24 20:02:00,57.6,52.8,29.90,North,360,0.0,14.0,84,0.00,,---,0.00,VWS V14.01,2013-09-25 03:02:00,
2013-09-24 20:07:00,57.6,52.8,29.90,NNW,335,4.0,17.0,84,0.00,,---,0.00,VWS V14.01,2013-09-25 03:07:00,
2013-09-24 20:12:00,57.5,52.7,29.90,WNW,287,3.0,17.0,84,0.00,,---,0.00,VWS V14.01,2013-09-25 03:12:00,
2013-09-24 20:17:00,57.5,52.7,29.90,NNW,341,3.0,17.0,84,0.00,,---,0.00,VWS V14.01,2013-09-25 03:17:00,
2013-09-24 20:22:00,57.5,52.7,29.91,NW,325,10.0,17.0,84,0.00,,---,0.00,VWS V14.01,2013-09-25 03:22:00,
2013-09-24 20:27:00,57.4,52.3,29.91,North,360,0.0,17.0,83,0.00,,---,0.00,VWS V14.01,2013-09-25 03:27:00,
2013-09-24 20:30:00,57.4,52.3,29.91,North,360,13.0,17.0,83,0.00,,---,0.00,VWS V14.01,2013-09-25 03:30:00,
2013-09-24 20:32:00,57.4,52.3,29.91,WNW,285,0.0,13.0,83,0.00,,---,0.00,VWS V14.01,2013-09-25 03:32:00,
2013-09-24 20:37:00,57.4,52.3,29.91,West,281,0.0,13.0,83,0.00,,---,0.00,VWS V14.01,2013-09-25 03:37:00,
2013-09-24 20:42:00,57.3,52.2,29.91,West,281,4.0,13.0,83,0.00,,---,0.00,VWS V14.01,2013-09-25 03:42:00,
2013-09-24 20:47:00,57.3,51.9,29.91,WNW,285,0.0,14.0,82,0.00,,---,0.00,VWS V14.01,2013-09-25 03:47:00,
2013-09-24 20:52:00,57.2,52.1,29.91,NW,317,2.0,14.0,83,0.00,,---,0.00,VWS V14.01,2013-09-25 03:52:00,
2013-09-24 20:57:00,57.1,51.7,29.91,NW,322,5.0,14.0,82,0.00,,---,0.00,VWS V14.01,2013-09-25 03:57:00,
2013-09-24 21:00:00,57.1,51.7,29.91,NNW,340,3.0,14.0,82,0.00,,---,0.00,VWS V14.01,2013-09-25 04:00:00,
2013-09-24 21:01:00,57.1,51.7,29.91,North,360,3.0,7.0,82,0.00,,---,0.00,VWS V14.01,2013-09-25 04:01:00,
2013-09-24 21:02:00,57.0,51.9,29.91,NW,319,6.0,10.0,83,0.00,,---,0.00,VWS V14.01,2013-09-25 04:02:00,
2013-09-24 21:04:00,57.0,51.9,29.91,North,360,0.0,10.0,83,0.00,,---,0.00,VWS V14.01,2013-09-25 04:04:00,
2013-09-24 21:09:00,56.9,51.8,29.91,North,360,6.0,15.0,83,0.00,,---,0.00,VWS V14.01,2013-09-25 04:09:00,
2013-09-24 21:14:00,56.7,51.9,29.91,North,360,5.0,15.0,84,0.00,,---,0.00,VWS V14.01,2013-09-25 04:14:00,
2013-09-24 21:19:00,56.5,52.0,29.91,WNW,286,14.0,15.0,85,0.00,,---,0.00,VWS V14.01,2013-09-25 04:19:00,
2013-09-24 21:24:00,56.4,52.0,29.91,NW,313,5.0,17.0,85,0.00,,---,0.00,VWS V14.01,2013-09-25 04:24:00,
2013-09-24 21:29:00,56.3,51.9,29.91,WNW,284,4.0,7.0,85,0.00,,---,0.00,VWS V14.01,2013-09-25 04:29:00,
2013-09-24 21:30:00,56.3,51.9,29.91,NW,304,3.0,17.0,85,0.00,,---,0.00,VWS V14.01,2013-09-25 04:30:00,
2013-09-24 21:34:00,56.3,51.5,29.91,NW,318,4.0,13.0,84,0.00,,---,0.00,VWS V14.01,2013-09-25 04:34:00,
2013-09-24 21:39:00,56.4,51.6,29.91,NW,319,6.0,13.0,84,0.00,,---,0.00,VWS V14.01,2013-09-25 04:39:00,
2013-09-24 21:44:00,56.3,51.5,29.91,NW,315,7.0,14.0,84,0.00,,---,0.00,VWS V14.01,2013-09-25 04:44:00,
2013-09-24 21:50:00,56.3,51.5,29.91,North,360,5.0,14.0,84,0.00,,---,0.00,VWS V14.01,2013-09-25 04:50:00,
2013-09-24 21:55:00,56.4,51.0,29.90,NW,308,9.0,14.0,82,0.00,,---,0.00,VWS V14.01,2013-09-25 04:55:00,
2013-09-24 22:00:00,56.7,50.6,29.90,North,360,3.0,16.0,80,0.00,,---,0.00,VWS V14.01,2013-09-25 05:00:00,
2013-09-24 22:05:00,56.9,50.1,29.90,NW,306,18.0,18.0,78,0.00,,---,0.00,VWS V14.01,2013-09-25 05:05:00,
2013-09-24 22:10:00,57.1,50.3,29.90,NW,324,2.0,18.0,78,0.00,,---,0.00,VWS V14.01,2013-09-25 05:10:00,
2013-09-24 22:15:00,57.1,50.0,29.90,WNW,282,9.0,19.0,77,0.00,,---,0.00,VWS V14.01,2013-09-25 05:15:00,
2013-09-24 22:20:00,57.3,50.2,29.91,WNW,303,10.0,19.0,77,0.00,,---,0.00,VWS V14.01,2013-09-25 05:20:00,
2013-09-24 22:25:00,57.3,50.2,29.90,West,278,6.0,19.0,77,0.00,,---,0.00,VWS V14.01,2013-09-25 05:25:00,
2013-09-24 22:30:00,57.3,50.2,29.90,NW,306,2.0,21.0,77,0.00,,---,0.00,VWS V14.01,2013-09-25 05:30:00,
2013-09-24 22:35:00,57.3,50.2,29.91,West,272,0.0,21.0,77,0.00,,---,0.00,VWS V14.01,2013-09-25 05:35:00,
2013-09-24 22:40:00,57.2,50.4,29.90,North,360,13.0,21.0,78,0.00,,---,0.00,VWS V14.01,2013-09-25 05:40:00,
2013-09-24 22:45:00,57.2,49.7,29.91,NW,315,13.0,21.0,76,0.00,,---,0.00,VWS V14.01,2013-09-25 05:45:00,
2013-09-24 22:50:00,57.3,50.2,29.91,North,360,15.0,22.0,77,0.00,,---,0.00,VWS V14.01,2013-09-25 05:50:00,
2013-09-24 22:55:00,57.3,50.2,29.91,NNW,328,12.0,23.0,77,0.00,,---,0.00,VWS V14.01,2013-09-25 05:55:00,
2013-09-24 23:00:00,57.3,50.2,29.91,West,265,2.0,15.0,77,0.00,,---,0.00,VWS V14.01,2013-09-25 06:00:00,
2013-09-24 23:05:00,57.0,50.2,29.91,NW,313,10.0,20.0,78,0.00,,---,0.00,VWS V14.01,2013-09-25 06:05:00,
2013-09-24 23:10:00,56.9,50.5,29.91,NW,321,10.0,20.0,79,0.00,,---,0.00,VWS V14.01,2013-09-25 06:10:00,
2013-09-24 23:15:00,56.9,50.5,29.90,WNW,284,1.0,22.0,79,0.00,,---,0.00,VWS V14.01,2013-09-25 06:15:00,
2013-09-24 23:20:00,56.9,50.5,29.90,WNW,284,11.0,22.0,79,0.00,,---,0.00,VWS V14.01,2013-09-25 06:20:00,
2013-09-24 23:25:00,56.9,50.5,29.90,NW,313,11.0,25.0,79,0.00,,---,0.00,VWS V14.01,2013-09-25 06:25:00,
2013-09-24 23:30:00,56.9,50.5,29.90,NW,323,7.0,17.0,79,0.00,,---,0.00,VWS V14.01,2013-09-25 06:30:00,
2013-09-24 23:36:00,57.0,50.2,29.90,NNW,337,16.0,20.0,78,0.00,,---,0.00,VWS V14.01,2013-09-25 06:36:00,
2013-09-24 23:41:00,57.0,50.6,29.90,West,277,5.0,24.0,79,0.00,,---,0.00,VWS V14.01,2013-09-25 06:41:00,
2013-09-24 23:46:00,57.0,50.6,29.90,North,360,2.0,24.0,79,0.00,,---,0.00,VWS V14.01,2013-09-25 06:46:00,
2013-09-24 23:51:00,56.9,50.5,29.90,NW,321,10.0,24.0,79,0.00,,---,0.00,VWS V14.01,2013-09-25 06:51:00,
2013-09-24 23:56:00,56.9,50.5,29.90,WNW,286,10.0,26.0,79,0.00,,---,0.00,VWS V14.01,2013-09-25 06:56:00,